Time;durP1;ratioP1;P1;durP2;ratioP2;P2;SDS_P1;SDS_P2;PMS_P1;PMS_P2;Temp;Humidity;BMP_temperature;BMP_pressure;BME280_temperature;BME280_humidity;BME280_pressure;Samples;Min_cycle;Max_cycle;Signal;HPM_P1;HPM_P2
2023/03/24 00:00:41;;;;;;;0.05;0.05;;;;;;;13.69;76.47;99738.94;5088798;28;20021;-82
2023/03/24 00:03:07;;;;;;;0.30;0.30;;;;;;;13.73;76.99;99738.72;5091956;28;20050;-82
2023/03/24 00:05:34;;;;;;;0.57;0.57;;;;;;;13.71;77.04;99734.41;5088653;28;20028;-83
2023/03/24 00:08:01;;;;;;;0.20;0.20;;;;;;;13.77;76.68;99723.47;5100482;28;20032;-83
2023/03/24 00:10:29;;;;;;;0.10;0.10;;;;;;;13.81;76.76;99722.34;5092402;28;20027;-84
2023/03/24 00:12:57;;;;;;;0.10;0.10;;;;;;;13.73;76.52;99721.88;5090631;28;20416;-85
2023/03/24 00:15:23;;;;;;;0.10;0.10;;;;;;;13.76;76.58;99713.75;5085568;28;20040;-83
2023/03/24 00:17:50;;;;;;;0.00;0.00;;;;;;;13.75;76.63;99714.69;5090199;28;20035;-84
2023/03/24 00:20:19;;;;;;;0.10;0.10;;;;;;;13.70;77.03;99696.28;5084227;28;20033;-81
2023/03/24 00:22:49;;;;;;;0.20;0.20;;;;;;;13.77;76.86;99703.94;5099073;28;20066;-81
2023/03/24 00:25:18;;;;;;;2.00;1.85;;;;;;;13.73;77.21;99703.25;5096506;28;20085;-81
2023/03/24 00:27:47;;;;;;;0.10;0.10;;;;;;;13.81;76.88;99703.72;5092912;28;20575;-84
2023/03/24 00:30:14;;;;;;;0.20;0.20;;;;;;;13.88;76.58;99710.44;5092211;28;20032;-85
2023/03/24 00:32:41;;;;;;;1.95;1.27;;;;;;;13.81;76.57;99698.41;5089192;28;20028;-85
2023/03/24 00:35:09;;;;;;;0.10;0.10;;;;;;;13.90;76.31;99691.72;5090425;28;20543;-85
2023/03/24 00:37:38;;;;;;;0.10;0.10;;;;;;;13.90;76.55;99697.06;5083348;28;20047;-85
2023/03/24 00:40:07;;;;;;;0.15;0.15;;;;;;;13.85;76.16;99689.28;5094095;28;20036;-85
2023/03/24 00:42:36;;;;;;;0.30;0.30;;;;;;;13.86;76.43;99687.50;5090761;28;20017;-85
2023/03/24 00:45:04;;;;;;;0.10;0.10;;;;;;;13.82;75.80;99673.50;5096133;28;20077;-83
2023/03/24 00:47:35;;;;;;;0.45;0.45;;;;;;;13.86;76.05;99687.50;5083720;28;20095;-84
2023/03/24 00:50:03;;;;;;;0.10;0.10;;;;;;;13.97;75.46;99681.59;5088919;28;20016;-83
2023/03/24 00:52:33;;;;;;;0.35;0.35;;;;;;;13.89;75.72;99674.03;5087677;28;20091;-85
2023/03/24 00:55:00;;;;;;;0.10;0.10;;;;;;;13.95;75.79;99657.72;5086149;28;20083;-82
2023/03/24 00:57:28;;;;;;;0.10;0.10;;;;;;;14.03;75.87;99659.97;5085810;28;20024;-83
2023/03/24 00:59:56;;;;;;;0.40;0.40;;;;;;;13.94;75.97;99658.66;5082329;28;20157;-83
2023/03/24 01:02:25;;;;;;;0.65;0.65;;;;;;;13.91;76.27;99662.34;5095252;28;20021;-83
2023/03/24 01:07:30;;;;;;;0.10;0.10;;;;;;;13.95;76.41;99654.22;5076546;28;20401;-82
2023/03/24 01:09:57;;;;;;;0.60;0.60;;;;;;;13.94;76.16;99645.34;5050083;28;20029;-84
2023/03/24 01:12:27;;;;;;;1.98;1.65;;;;;;;14.02;76.13;99645.81;5054705;28;20027;-84
2023/03/24 01:14:53;;;;;;;0.10;0.10;;;;;;;14.00;76.16;99649.50;5048574;28;20029;-85
2023/03/24 01:17:21;;;;;;;0.10;0.10;;;;;;;13.97;76.63;99644.31;5056769;28;20616;-82
2023/03/24 01:19:48;;;;;;;0.10;0.10;;;;;;;13.97;76.12;99649.66;5057124;28;20067;-84
2023/03/24 01:22:15;;;;;;;0.10;0.10;;;;;;;13.96;76.34;99646.13;5055273;28;20029;-84
2023/03/24 01:24:42;;;;;;;1.23;0.68;;;;;;;13.96;76.54;99647.94;5057953;28;20037;-84
2023/03/24 01:27:08;;;;;;;0.45;0.45;;;;;;;13.96;76.20;99642.63;5058097;28;20033;-84
2023/03/24 01:29:34;;;;;;;0.10;0.10;;;;;;;13.98;76.12;99646.03;5054208;28;20029;-83
2023/03/24 01:32:01;;;;;;;0.10;0.10;;;;;;;13.95;76.49;99649.75;5053887;28;20098;-84
2023/03/24 01:34:27;;;;;;;0.82;0.82;;;;;;;14.02;76.32;99635.16;5056786;28;20029;-82
2023/03/24 01:36:53;;;;;;;0.35;0.35;;;;;;;13.91;76.87;99640.19;5059607;28;20029;-83
2023/03/24 01:39:19;;;;;;;0.10;0.10;;;;;;;13.95;76.88;99638.25;5053010;28;20092;-84
2023/03/24 01:41:45;;;;;;;0.10;0.10;;;;;;;13.98;76.94;99641.59;5056560;28;20499;-83
2023/03/24 01:44:34;;;;;;;0.10;0.10;;;;;;;14.06;76.47;99638.53;5055812;28;20036;-84
2023/03/24 01:47:04;;;;;;;0.10;0.10;;;;;;;13.89;77.17;99634.97;5049255;28;20029;-83
2023/03/24 01:49:38;;;;;;;0.10;0.10;;;;;;;13.98;77.42;99646.94;5058377;28;20476;-84
2023/03/24 01:52:10;;;;;;;0.10;0.10;;;;;;;13.98;77.14;99675.34;5046555;28;20029;-83
2023/03/24 01:54:44;;;;;;;0.10;0.10;;;;;;;13.86;78.06;99691.03;5053037;28;20036;-85
2023/03/24 01:57:20;;;;;;;0.10;0.10;;;;;;;13.89;77.97;99703.31;5049282;28;20028;-84
2023/03/24 01:59:50;;;;;;;0.10;0.10;;;;;;;13.70;75.95;99690.09;5059978;28;20120;-84
2023/03/24 02:02:17;;;;;;;0.10;0.10;;;;;;;13.68;75.57;99702.63;5053598;28;20058;-84
2023/03/24 02:04:47;;;;;;;0.10;0.10;;;;;;;13.70;74.65;99716.72;5057559;28;20025;-84
2023/03/24 02:07:36;;;;;;;0.10;0.10;;;;;;;13.72;74.26;99704.19;5057995;28;20021;-83
2023/03/24 02:10:08;;;;;;;3.00;1.13;;;;;;;13.56;73.64;99714.78;5059096;28;20108;-84
2023/03/24 02:12:34;;;;;;;0.20;0.20;;;;;;;13.56;73.10;99752.88;5060665;28;20036;-84
2023/03/24 02:15:02;;;;;;;0.17;0.17;;;;;;;13.48;72.95;99739.06;5059622;28;20048;-85
2023/03/24 02:17:45;;;;;;;0.10;0.10;;;;;;;13.44;72.10;99750.81;5046403;28;20562;-85
2023/03/24 02:26:05;;;;;;;0.10;0.10;;;;;;;13.33;70.73;99777.06;5119319;27;20093;-83
2023/03/24 02:28:56;;;;;;;0.10;0.10;;;;;;;13.27;70.41;99772.88;5094053;28;20071;-85
2023/03/24 02:34:30;;;;;;;0.10;0.10;;;;;;;13.04;69.93;99782.84;5118074;27;20458;-84
2023/03/24 02:37:36;;;;;;;0.10;0.10;;;;;;;13.13;69.95;99770.91;5108156;27;20502;-85
2023/03/24 02:43:16;;;;;;;0.10;0.10;;;;;;;13.02;68.99;99779.41;5099030;28;20122;-86
2023/03/24 02:51:23;;;;;;;0.10;0.10;;;;;;;12.62;68.83;99803.38;5079276;27;1932896;-83
2023/03/24 02:54:14;;;;;;;0.10;0.10;;;;;;;12.70;68.42;99812.81;5128664;28;20028;-83
2023/03/24 02:56:52;;;;;;;0.08;0.08;;;;;;;12.60;68.06;99830.94;5122485;28;20028;-83
2023/03/24 02:59:30;;;;;;;0.10;0.10;;;;;;;12.38;68.94;99844.31;5135671;28;20049;-83
2023/03/24 03:02:13;;;;;;;0.10;0.10;;;;;;;12.39;68.77;99827.44;5144170;28;20024;-82
2023/03/24 03:04:48;;;;;;;0.10;0.10;;;;;;;12.31;69.39;99835.72;5139255;27;20051;-83
2023/03/24 03:07:20;;;;;;;0.10;0.10;;;;;;;12.22;69.04;99833.47;5126616;28;20019;-84
2023/03/24 03:10:10;;;;;;;0.10;0.10;;;;;;;12.28;69.47;99836.72;5131202;27;20028;-85
2023/03/24 03:12:39;;;;;;;0.10;0.10;;;;;;;12.18;69.53;99861.09;5127600;28;20045;-81
2023/03/24 03:15:11;;;;;;;0.15;0.15;;;;;;;12.17;69.54;99876.16;5128478;28;20027;-83
2023/03/24 03:17:47;;;;;;;0.10;0.10;;;;;;;12.14;69.91;99860.38;5127843;27;20038;-84
2023/03/24 03:20:19;;;;;;;0.50;0.50;;;;;;;12.17;70.15;99844.28;5128465;27;20818;-82
2023/03/24 03:22:55;;;;;;;;;;;;;;;12.29;69.59;99854.41;5134381;27;20024;-83
2023/03/24 03:25:28;;;;;;;0.10;0.10;;;;;;;12.09;69.89;99883.59;5131303;27;19907;-83
2023/03/24 03:27:58;;;;;;;2.13;0.63;;;;;;;11.96;69.94;99862.88;5125015;27;20020;-84
2023/03/24 03:30:32;;;;;;;0.10;0.10;;;;;;;11.98;70.47;99870.78;5126875;28;20028;-82
2023/03/24 03:33:24;;;;;;;0.10;0.10;;;;;;;12.01;69.92;99864.47;5134129;28;20028;-82
2023/03/24 03:39:00;;;;;;;0.00;0.00;;;;;;;12.08;69.68;99871.25;5076470;28;20377;-84
2023/03/24 03:41:26;;;;;;;0.10;0.10;;;;;;;11.92;69.71;99885.09;5071024;28;20028;-84
2023/03/24 03:43:52;;;;;;;0.10;0.10;;;;;;;11.86;69.69;99877.41;5065588;28;20047;-84
2023/03/24 03:46:19;;;;;;;0.00;0.00;;;;;;;11.92;70.18;99886.91;5062825;28;20046;-84
2023/03/24 03:48:46;;;;;;;0.05;0.05;;;;;;;11.88;69.63;99886.16;5068093;28;20036;-82
2023/03/24 03:51:13;;;;;;;0.40;0.40;;;;;;;12.06;69.99;99891.69;5067797;28;20032;-84
2023/03/24 03:53:53;;;;;;;0.10;0.10;;;;;;;12.17;69.89;99897.41;5070923;28;20128;-83
2023/03/24 03:56:23;;;;;;;0.10;0.10;;;;;;;12.19;69.76;99889.41;5070209;28;20020;-81
2023/03/24 03:58:49;;;;;;;0.10;0.10;;;;;;;12.10;69.87;99901.22;5051592;28;20092;-83
2023/03/24 04:01:18;;;;;;;0.35;0.35;;;;;;;12.08;70.11;99897.81;5061203;28;20500;-82
2023/03/24 04:04:01;;;;;;;0.10;0.10;;;;;;;12.01;70.19;99897.16;5062051;28;20033;-80
2023/03/24 04:06:58;;;;;;;0.10;0.10;;;;;;;12.13;69.54;99874.56;5051897;28;20017;-80
2023/03/24 04:10:04;;;;;;;1.17;1.10;;;;;;;11.99;69.92;99893.72;5064700;28;20025;-82
2023/03/24 04:12:49;;;;;;;0.17;0.17;;;;;;;12.07;69.84;99904.03;5061442;28;20191;-81
2023/03/24 04:15:32;;;;;;;0.10;0.10;;;;;;;11.92;69.83;99901.03;5059213;28;20017;-82
2023/03/24 04:20:49;;;;;;;0.10;0.10;;;;;;;12.03;69.68;99916.56;5088883;27;20148;-84
2023/03/24 04:23:44;;;;;;;0.05;0.05;;;;;;;11.94;69.47;99928.41;5077783;28;20036;-83
2023/03/24 04:31:40;;;;;;;0.57;0.57;;;;;;;11.84;69.04;99937.66;5081143;28;20135;-82
2023/03/24 04:34:19;;;;;;;1.33;1.33;;;;;;;11.77;68.73;99941.47;5073941;28;20029;-80
2023/03/24 04:36:53;;;;;;;0.20;0.20;;;;;;;11.71;69.21;99947.03;5066650;28;20026;-81
2023/03/24 04:39:26;;;;;;;0.10;0.10;;;;;;;11.69;68.83;99943.56;5065759;28;20095;-84
2023/03/24 04:41:56;;;;;;;0.10;0.10;;;;;;;11.78;68.60;99945.88;5075122;28;20032;-84
2023/03/24 04:44:24;;;;;;;0.10;0.10;;;;;;;11.68;68.61;99952.47;5063956;28;20021;-82
2023/03/24 04:46:53;;;;;;;0.15;0.15;;;;;;;11.60;68.59;99940.34;5058755;28;20029;-82
2023/03/24 04:49:23;;;;;;;0.10;0.10;;;;;;;11.46;69.53;99948.84;5060076;28;20017;-82
2023/03/24 04:51:50;;;;;;;0.10;0.10;;;;;;;11.43;69.73;99953.41;5050225;28;20025;-83
2023/03/24 04:54:18;;;;;;;0.10;0.10;;;;;;;11.56;69.57;99949.34;5059839;28;20048;-83
2023/03/24 04:56:48;;;;;;;0.10;0.10;;;;;;;11.47;69.90;99962.97;5057740;28;20037;-83
2023/03/24 04:59:14;;;;;;;0.10;0.10;;;;;;;11.44;69.98;99971.03;5063900;28;20025;-82
2023/03/24 05:01:48;;;;;;;0.20;0.20;;;;;;;11.40;69.75;99974.72;5050920;28;20067;-82
2023/03/24 05:04:17;;;;;;;0.10;0.10;;;;;;;11.37;70.87;99969.53;5064445;28;20033;-81
2023/03/24 05:06:43;;;;;;;0.20;0.20;;;;;;;11.28;71.28;99978.72;5068221;28;20081;-81
2023/03/24 05:09:09;;;;;;;0.32;0.32;;;;;;;11.38;70.62;99971.28;5066509;28;20029;-81
2023/03/24 05:11:35;;;;;;;0.10;0.10;;;;;;;11.35;70.77;99968.72;5058080;28;20097;-82
2023/03/24 05:14:01;;;;;;;0.20;0.20;;;;;;;11.45;70.87;99992.22;5054917;28;20036;-81
2023/03/24 05:16:27;;;;;;;0.10;0.10;;;;;;;11.51;70.79;99993.75;5061348;28;20402;-81
2023/03/24 05:18:53;;;;;;;0.10;0.10;;;;;;;11.62;70.45;99999.50;5065257;28;20406;-82
2023/03/24 05:21:19;;;;;;;0.10;0.10;;;;;;;11.55;70.64;99999.81;5060956;28;20013;-81
2023/03/24 05:23:46;;;;;;;1.20;1.20;;;;;;;11.60;70.14;100008.44;5061458;28;20053;-83
2023/03/24 05:26:12;;;;;;;0.10;0.10;;;;;;;11.48;70.07;100004.50;5058705;28;20033;-82
2023/03/24 05:28:38;;;;;;;0.10;0.10;;;;;;;11.59;70.17;100004.94;5055808;28;20033;-82
2023/03/24 05:31:04;;;;;;;0.10;0.10;;;;;;;11.64;70.39;100000.31;5074132;28;20035;-81
2023/03/24 05:33:32;;;;;;;0.10;0.10;;;;;;;11.64;69.71;100008.28;5070386;28;20107;-81
2023/03/24 05:35:58;;;;;;;0.20;0.20;;;;;;;11.65;69.27;100007.38;5065850;28;20091;-81
2023/03/24 05:38:24;;;;;;;1.60;1.50;;;;;;;11.62;69.45;100006.63;5070525;28;20124;-81
2023/03/24 05:40:50;;;;;;;0.10;0.10;;;;;;;11.73;69.36;100017.69;5070543;28;20091;-81
2023/03/24 05:43:16;;;;;;;0.10;0.10;;;;;;;11.83;69.43;100010.25;5062964;28;20075;-81
2023/03/24 05:45:43;;;;;;;0.10;0.10;;;;;;;11.79;69.11;100040.50;5054981;28;20499;-80
2023/03/24 05:48:09;;;;;;;0.10;0.10;;;;;;;11.82;68.55;100019.13;5058409;28;20043;-80
2023/03/24 05:50:35;;;;;;;0.10;0.10;;;;;;;11.85;68.70;100039.38;5046363;28;20044;-80
2023/03/24 05:53:01;;;;;;;0.15;0.15;;;;;;;11.87;68.23;100033.06;5053480;28;20067;-82
2023/03/24 05:55:27;;;;;;;0.20;0.20;;;;;;;11.89;68.74;100047.16;5046828;28;20033;-81
2023/03/24 05:57:54;;;;;;;0.17;0.17;;;;;;;11.98;68.03;100038.00;5058424;28;20022;-81
2023/03/24 06:00:22;;;;;;;0.10;0.10;;;;;;;11.89;68.03;100038.34;5036921;28;20033;-84
2023/03/24 06:02:49;;;;;;;0.10;0.10;;;;;;;12.03;67.44;100040.50;5047566;28;20084;-81
2023/03/24 06:05:15;;;;;;;0.10;0.10;;;;;;;12.13;67.25;100041.88;5053936;28;20012;-82
2023/03/24 06:07:41;;;;;;;0.20;0.20;;;;;;;12.14;66.76;100049.75;5049419;28;20089;-82
2023/03/24 06:10:10;;;;;;;0.10;0.10;;;;;;;12.11;67.11;100041.03;5048270;28;20065;-81
2023/03/24 06:12:37;;;;;;;0.10;0.10;;;;;;;12.02;67.28;100062.66;5039841;28;20053;-83
2023/03/24 06:15:04;;;;;;;0.10;0.10;;;;;;;12.04;67.07;100060.81;5045091;28;20048;-82
2023/03/24 06:17:30;;;;;;;3.30;2.65;;;;;;;11.92;67.16;100062.97;5045740;28;20044;-83
2023/03/24 06:20:04;;;;;;;1.88;1.77;;;;;;;12.04;66.62;100055.50;5049732;28;20032;-83
2023/03/24 06:22:31;;;;;;;0.10;0.10;;;;;;;12.04;66.48;100069.63;5052072;28;20033;-82
2023/03/24 06:24:58;;;;;;;0.73;0.73;;;;;;;12.04;66.56;100066.97;5052307;28;20018;-82
2023/03/24 06:27:29;;;;;;;0.10;0.10;;;;;;;12.11;66.40;100063.19;5037474;28;20176;-83
2023/03/24 06:29:56;;;;;;;0.10;0.10;;;;;;;12.20;66.45;100069.91;5043737;28;20414;-84
2023/03/24 06:32:23;;;;;;;0.10;0.10;;;;;;;12.16;66.73;100064.78;5040928;28;20017;-83
2023/03/24 06:34:49;;;;;;;0.10;0.10;;;;;;;12.15;66.31;100074.53;5054924;28;20044;-81
2023/03/24 06:37:16;;;;;;;18.52;1.23;;;;;;;11.94;66.31;100098.28;5056873;28;20030;-82
2023/03/24 06:39:42;;;;;;;0.10;0.10;;;;;;;12.21;66.39;100070.75;5045797;28;20371;-83
2023/03/24 06:42:08;;;;;;;0.10;0.10;;;;;;;12.25;65.62;100081.22;5051992;28;20032;-83
2023/03/24 06:44:34;;;;;;;0.10;0.10;;;;;;;12.24;65.56;100087.44;5038480;28;20033;-82
2023/03/24 06:47:00;;;;;;;0.10;0.10;;;;;;;12.25;65.41;100086.53;5041146;28;20047;-81
2023/03/24 06:49:26;;;;;;;0.60;0.60;;;;;;;12.33;65.49;100082.72;5049560;28;20065;-81
2023/03/24 06:51:53;;;;;;;0.10;0.10;;;;;;;12.19;66.65;100084.13;5042038;28;20037;-82
2023/03/24 06:54:19;;;;;;;0.10;0.10;;;;;;;12.27;65.67;100090.00;5046161;28;20128;-83
2023/03/24 06:56:45;;;;;;;0.10;0.10;;;;;;;12.17;65.75;100098.38;5047785;28;20045;-80
2023/03/24 06:59:11;;;;;;;0.10;0.10;;;;;;;12.22;66.53;100097.25;5043241;28;20025;-78
2023/03/24 07:01:38;;;;;;;28.85;1.05;;;;;;;12.21;66.76;100100.88;5040735;28;20026;-78
2023/03/24 07:04:05;;;;;;;0.05;0.05;;;;;;;12.21;65.86;100099.97;5047223;28;20025;-78
2023/03/24 07:06:32;;;;;;;0.10;0.10;;;;;;;12.35;66.01;100107.41;5039900;28;20089;-80
2023/03/24 07:08:58;;;;;;;0.20;0.20;;;;;;;12.24;65.91;100116.66;5045170;28;20131;-80
2023/03/24 07:11:25;;;;;;;0.10;0.10;;;;;;;12.41;65.98;100121.34;5031423;28;20053;-81
2023/03/24 07:13:51;;;;;;;0.10;0.10;;;;;;;12.49;65.80;100109.53;5030765;28;20038;-81
2023/03/24 07:16:17;;;;;;;0.47;0.43;;;;;;;12.47;65.05;100112.22;5042325;28;20556;-81
2023/03/24 07:18:43;;;;;;;0.10;0.10;;;;;;;12.49;65.75;100121.03;5039509;28;20014;-80
2023/03/24 07:21:09;;;;;;;0.10;0.10;;;;;;;12.64;65.43;100124.00;5042564;28;20049;-78
2023/03/24 07:23:36;;;;;;;0.30;0.30;;;;;;;12.60;65.45;100137.41;5041561;28;20348;-79
2023/03/24 07:26:02;;;;;;;0.25;0.25;;;;;;;12.71;65.96;100130.78;5049473;28;20033;-79
2023/03/24 07:28:28;;;;;;;0.10;0.10;;;;;;;12.70;65.99;100143.22;5037237;28;20061;-78
2023/03/24 07:30:54;;;;;;;0.10;0.10;;;;;;;12.85;65.40;100139.06;5041347;28;20033;-79
2023/03/24 07:33:20;;;;;;;0.10;0.10;;;;;;;12.81;64.87;100142.78;5049811;28;20028;-81
2023/03/24 07:35:46;;;;;;;0.10;0.10;;;;;;;12.85;64.86;100139.06;5041956;28;20109;-78
2023/03/24 07:38:13;;;;;;;0.10;0.10;;;;;;;12.79;64.63;100149.97;5039192;28;20030;-79
2023/03/24 07:40:39;;;;;;;0.10;0.10;;;;;;;12.93;64.81;100131.66;5036372;28;20005;-80
2023/03/24 07:43:05;;;;;;;0.20;0.20;;;;;;;12.96;64.60;100136.00;5036188;28;20041;-80
2023/03/24 07:45:32;;;;;;;0.10;0.10;;;;;;;12.93;65.23;100158.25;5045555;28;20056;-79
2023/03/24 07:48:00;;;;;;;0.10;0.10;;;;;;;12.91;65.15;100153.91;5040018;28;20088;-80
2023/03/24 07:50:28;;;;;;;0.10;0.10;;;;;;;13.00;64.93;100158.00;5040828;28;20124;-82
2023/03/24 07:52:54;;;;;;;0.47;0.47;;;;;;;13.01;64.84;100157.03;5037368;28;20052;-79
2023/03/24 07:55:20;;;;;;;0.03;0.03;;;;;;;13.14;64.78;100160.09;5042888;28;20045;-81
2023/03/24 07:57:48;;;;;;;0.10;0.10;;;;;;;12.97;64.40;100171.41;5037446;28;20044;-78
2023/03/24 08:00:17;;;;;;;2.05;1.55;;;;;;;13.13;63.94;100172.50;5045002;28;20021;-80
2023/03/24 08:02:45;;;;;;;0.10;0.10;;;;;;;13.04;64.54;100172.88;5045212;28;20005;-79
2023/03/24 08:05:13;;;;;;;0.20;0.20;;;;;;;13.16;63.88;100175.06;5046494;28;20030;-81
2023/03/24 08:07:41;;;;;;;0.40;0.40;;;;;;;13.23;64.08;100165.88;5045598;28;20025;-79
2023/03/24 08:10:09;;;;;;;0.10;0.10;;;;;;;13.26;63.45;100184.38;5039813;28;20030;-79
2023/03/24 08:12:35;;;;;;;0.10;0.10;;;;;;;13.06;61.85;100171.00;5035834;28;20005;-79
2023/03/24 08:15:02;;;;;;;0.10;0.10;;;;;;;12.91;62.57;100178.72;5045934;28;20037;-79
2023/03/24 08:17:29;;;;;;;0.10;0.10;;;;;;;13.02;62.25;100182.72;5034304;28;20045;-81
2023/03/24 08:19:56;;;;;;;0.10;0.10;;;;;;;13.10;62.18;100186.78;5042456;28;20052;-82
2023/03/24 08:22:22;;;;;;;0.57;0.57;;;;;;;13.20;62.74;100176.63;5041693;28;20049;-81
2023/03/24 08:24:48;;;;;;;0.15;0.15;;;;;;;13.22;62.94;100182.78;5044999;28;20059;-80
2023/03/24 08:27:15;;;;;;;1.05;1.05;;;;;;;13.41;62.40;100195.34;5029381;28;20030;-82
2023/03/24 08:29:42;;;;;;;0.10;0.10;;;;;;;13.53;62.63;100189.50;5036765;28;20064;-80
2023/03/24 08:32:08;;;;;;;0.13;0.13;;;;;;;13.54;62.43;100195.69;5040965;28;20049;-82
2023/03/24 08:34:34;;;;;;;0.63;0.63;;;;;;;13.64;61.89;100188.16;5039272;28;20034;-82
2023/03/24 08:37:01;;;;;;;0.20;0.20;;;;;;;13.73;61.18;100185.97;5044251;28;20148;-83
2023/03/24 08:39:27;;;;;;;0.10;0.10;;;;;;;13.69;60.40;100204.78;5046170;28;20038;-83
2023/03/24 08:41:53;;;;;;;0.10;0.10;;;;;;;13.85;60.68;100202.34;5043256;28;20029;-83
2023/03/24 08:44:20;;;;;;;0.00;0.00;;;;;;;13.87;59.32;100197.81;5027778;28;20513;-82
2023/03/24 08:46:46;;;;;;;0.38;0.38;;;;;;;13.81;58.85;100209.59;5041146;28;20030;-81
2023/03/24 08:49:13;;;;;;;16.17;0.70;;;;;;;13.80;59.00;100209.66;5039843;28;20437;-81
2023/03/24 08:51:39;;;;;;;0.10;0.10;;;;;;;13.88;59.22;100203.06;5046090;28;20598;-81
2023/03/24 08:54:06;;;;;;;0.10;0.10;;;;;;;13.81;59.37;100209.59;5040132;28;20028;-79
2023/03/24 08:56:32;;;;;;;0.10;0.10;;;;;;;13.85;58.67;100215.66;5037626;28;20026;-81
2023/03/24 08:58:58;;;;;;;0.10;0.10;;;;;;;13.84;59.48;100208.59;5041251;28;20064;-80
2023/03/24 09:01:24;;;;;;;0.52;0.52;;;;;;;13.84;59.51;100221.91;5031491;28;20034;-76
2023/03/24 09:03:50;;;;;;;42.22;1.67;;;;;;;13.93;59.67;100228.63;5033028;28;20022;-82
2023/03/24 09:06:17;;;;;;;0.13;0.13;;;;;;;13.88;59.39;100226.16;5040278;28;20022;-81
2023/03/24 09:08:43;;;;;;;0.38;0.38;;;;;;;14.02;58.98;100220.25;5034453;28;20025;-82
2023/03/24 09:11:15;;;;;;;0.10;0.10;;;;;;;13.91;58.20;100250.84;5031480;28;20095;-83
2023/03/24 09:13:47;;;;;;;0.20;0.20;;;;;;;13.82;58.42;100240.63;5031802;28;20033;-82
2023/03/24 09:16:14;;;;;;;0.20;0.20;;;;;;;13.78;58.02;100246.13;5031331;28;20029;-82
2023/03/24 09:18:41;;;;;;;1.50;1.42;;;;;;;13.74;56.84;100246.28;5034430;28;20053;-80
2023/03/24 09:21:08;;;;;;;0.10;0.10;;;;;;;13.71;56.71;100250.88;5031867;28;20099;-83
2023/03/24 09:23:34;;;;;;;0.20;0.20;;;;;;;13.81;57.07;100251.34;5041631;28;20037;-80
2023/03/24 09:26:01;;;;;;;0.85;0.85;;;;;;;13.90;57.03;100245.59;5029569;28;20055;-81
2023/03/24 09:28:28;;;;;;;0.10;0.10;;;;;;;14.03;57.15;100248.59;5033897;28;20051;-80
2023/03/24 09:30:59;;;;;;;0.70;0.70;;;;;;;14.17;57.15;100246.19;5034949;28;20499;-81
2023/03/24 09:33:26;;;;;;;0.40;0.40;;;;;;;14.27;56.95;100251.97;5033742;28;20353;-82
2023/03/24 09:35:55;;;;;;;0.10;0.10;;;;;;;14.40;56.25;100242.50;5028595;28;20022;-79
2023/03/24 09:38:21;;;;;;;0.10;0.10;;;;;;;14.50;55.91;100253.56;5021408;28;20034;-82
2023/03/24 09:40:53;;;;;;;0.10;0.10;;;;;;;14.53;55.15;100256.13;5036971;28;20095;-82
2023/03/24 09:43:41;;;;;;;0.10;0.10;;;;;;;14.69;55.53;100255.44;5036666;28;20030;-82
2023/03/24 09:46:19;;;;;;;1.00;1.00;;;;;;;14.83;54.67;100252.13;5038361;28;20098;-82
2023/03/24 09:48:54;;;;;;;0.10;0.10;;;;;;;14.71;54.17;100248.22;5043484;28;20033;-81
2023/03/24 09:51:23;;;;;;;0.43;0.43;;;;;;;14.99;54.69;100252.25;5040742;28;20033;-79
2023/03/24 09:56:49;;;;;;;2.00;1.85;;;;;;;15.07;53.64;100259.91;5118150;27;20391;-82
2023/03/24 09:59:37;;;;;;;3.30;1.77;;;;;;;15.30;54.05;100253.44;5117039;28;20079;-82
2023/03/24 10:02:20;;;;;;;0.10;0.10;;;;;;;15.31;53.73;100258.69;5111127;28;20050;-78
2023/03/24 10:04:48;;;;;;;0.30;0.30;;;;;;;15.14;52.90;100262.19;5118011;28;20044;-79
2023/03/24 10:09:58;;;;;;;0.10;0.10;;;;;;;15.44;52.22;100269.63;5067045;28;20397;-81
2023/03/24 10:17:56;;;;;;;0.10;0.10;;;;;;;15.30;52.06;100256.97;5140409;27;20395;-81
2023/03/24 10:20:49;;;;;;;0.10;0.10;;;;;;;15.44;52.11;100264.31;5120873;28;20110;-80
2023/03/24 10:32:20;;;;;;;0.10;0.10;;;;;;;15.56;51.12;100251.28;5070520;28;20380;-79
2023/03/24 10:34:54;;;;;;;0.13;0.13;;;;;;;15.47;51.47;100253.47;5057092;28;20039;-80
2023/03/24 10:37:20;;;;;;;0.20;0.20;;;;;;;15.48;51.37;100244.50;5056358;28;20095;-79
2023/03/24 10:39:47;;;;;;;0.38;0.38;;;;;;;15.20;52.04;100261.91;5056311;28;20021;-80
2023/03/24 10:42:17;;;;;;;0.10;0.10;;;;;;;15.00;52.26;100259.31;5060866;28;20025;-80
2023/03/24 10:44:45;;;;;;;0.10;0.10;;;;;;;15.00;52.58;100252.19;5061979;28;20060;-79
2023/03/24 10:47:13;;;;;;;0.10;0.10;;;;;;;14.93;53.48;100252.53;5060335;28;20025;-79
2023/03/24 10:49:52;;;;;;;0.10;0.10;;;;;;;15.02;53.93;100263.63;5065351;28;20108;-80
2023/03/24 10:52:19;;;;;;;0.10;0.10;;;;;;;14.90;53.51;100247.38;5061332;28;20120;-81
2023/03/24 10:55:02;;;;;;;1.10;1.10;;;;;;;15.02;54.28;100255.63;5060586;28;20527;-81
2023/03/24 10:57:29;;;;;;;0.00;0.00;;;;;;;15.16;53.88;100265.63;5050992;28;20052;-82
2023/03/24 11:00:00;;;;;;;3.40;1.67;;;;;;;15.48;53.17;100271.22;5061040;28;20021;-79
2023/03/24 11:02:32;;;;;;;0.10;0.10;;;;;;;15.61;52.53;100274.13;5053492;28;20034;-80
2023/03/24 11:05:01;;;;;;;;;;;;;;;15.78;51.17;100251.06;5065399;28;20025;-82
2023/03/24 11:07:35;;;;;;;0.10;0.10;;;;;;;15.53;51.48;100258.50;5051275;28;20228;-82
2023/03/24 11:10:23;;;;;;;0.20;0.20;;;;;;;15.45;52.36;100270.50;5052600;28;20026;-81
2023/03/24 11:15:30;;;;;;;0.10;0.10;;;;;;;15.42;52.83;100257.31;5117344;27;20129;-78
2023/03/24 11:18:00;;;;;;;0.28;0.28;;;;;;;15.58;53.12;100268.09;5109585;28;20028;-80
2023/03/24 11:25:42;;;;;;;1.48;0.98;;;;;;;15.96;52.55;100265.28;5119543;27;20381;-80
2023/03/24 11:28:15;;;;;;;0.32;0.32;;;;;;;15.95;51.31;100271.56;5119639;28;20062;-82
2023/03/24 11:30:51;;;;;;;0.47;0.47;;;;;;;16.12;50.99;100292.94;5099014;28;20056;-80
2023/03/24 11:33:27;;;;;;;0.10;0.10;;;;;;;16.22;51.23;100268.41;5096459;28;20390;-82
2023/03/24 11:36:10;;;;;;;0.35;0.35;;;;;;;16.20;50.60;100267.63;5092999;28;20029;-82
2023/03/24 11:42:15;;;;;;;0.30;0.30;;;;;;;16.24;49.09;100285.25;5070980;28;20490;-80
2023/03/24 11:44:50;;;;;;;0.10;0.10;;;;;;;16.19;49.33;100282.81;5046035;28;20072;-79
2023/03/24 11:47:27;;;;;;;0.10;0.10;;;;;;;16.07;50.07;100273.63;5063252;28;20601;-79
2023/03/24 11:53:14;;;;;;;0.10;0.10;;;;;;;15.91;51.54;100273.53;4283341;27;25495919;-80
2023/03/24 11:56:01;;;;;;;0.20;0.20;;;;;;;15.79;50.80;100272.34;5183698;27;20038;-79
2023/03/24 11:58:43;;;;;;;0.70;0.70;;;;;;;15.73;50.83;100290.50;5168074;27;20028;-82
2023/03/24 12:17:18;;;;;;;0.20;0.20;;;;;;;16.26;48.54;100283.34;5126818;27;1184838;-81
2023/03/24 12:23:21;;;;;;;1.85;1.75;;;;;;;16.55;48.44;100268.44;5149632;27;20885;-80
2023/03/24 12:26:15;;;;;;;0.10;0.10;;;;;;;16.79;48.82;100263.53;5149477;28;20039;-79
2023/03/24 12:29:10;;;;;;;0.20;0.20;;;;;;;16.89;47.54;100266.56;5144386;28;20020;-79
2023/03/24 12:42:42;;;;;;;0.38;0.38;;;;;;;17.58;46.70;100271.63;5109473;27;20409;-83
2023/03/24 12:45:35;;;;;;;0.10;0.10;;;;;;;17.41;45.74;100267.28;5111294;28;20032;-80
2023/03/24 12:48:23;;;;;;;0.10;0.10;;;;;;;17.00;46.10;100257.97;5096799;28;20016;-79
2023/03/24 12:51:29;;;;;;;1.60;1.35;;;;;;;16.87;45.85;100240.84;5112653;28;20110;-80
2023/03/24 12:57:00;;;;;;;0.80;0.47;;;;;;;16.65;47.13;100242.03;5104066;27;1195111;-81
2023/03/24 13:04:55;;;;;;;0.10;0.10;;;;;;;16.63;46.56;100244.78;5120792;27;20389;-81
2023/03/24 13:07:27;;;;;;;0.10;0.10;;;;;;;16.64;46.70;100234.97;5105110;28;20032;-80
2023/03/24 13:10:19;;;;;;;0.10;0.10;;;;;;;16.48;47.17;100254.50;5106964;28;20024;-80
2023/03/24 13:15:32;;;;;;;0.10;0.10;;;;;;;16.30;48.46;100242.16;5017261;28;21686;-81
2023/03/24 13:18:26;;;;;;;0.10;0.10;;;;;;;16.47;47.93;100220.72;5011581;28;20509;-80
2023/03/24 13:20:58;;;;;;;0.68;0.68;;;;;;;16.34;48.72;100223.19;5007166;28;20034;-81
2023/03/24 13:32:12;;;;;;;0.10;0.10;;;;;;;15.81;49.98;100257.13;5118381;27;1226227;-82
2023/03/24 13:34:47;;;;;;;1.17;1.05;;;;;;;15.78;49.82;100241.22;5147836;27;20053;-81
2023/03/24 13:37:26;;;;;;;0.10;0.10;;;;;;;15.74;49.36;100271.72;5144858;27;20023;-80
2023/03/24 13:39:57;;;;;;;0.10;0.10;;;;;;;15.87;49.82;100244.41;5128961;28;20046;-81
2023/03/24 13:42:35;;;;;;;4.00;1.65;;;;;;;15.96;48.79;100246.59;5139638;28;20028;-81